Time;durP1;ratioP1;P1;durP2;ratioP2;P2;SDS_P1;SDS_P2;PMS_P1;PMS_P2;Temp;Humidity;BMP_temperature;BMP_pressure;BME280_temperature;BME280_humidity;BME280_pressure;Samples;Min_cycle;Max_cycle;Signal;HPM_P1;HPM_P2
2022/06/09 00:03:34;;;;;;;3.67;1.80;;;;;;;19.11;61.55;97289.09;8323047;28;20230;-75
2022/06/09 00:07:38;;;;;;;7.40;2.07;;;;;;;19.09;61.70;97291.03;8349108;28;20433;-74
2022/06/09 00:11:42;;;;;;;10.30;2.10;;;;;;;19.07;61.82;97285.91;8322410;28;20237;-75
2022/06/09 00:15:45;;;;;;;4.00;2.17;;;;;;;19.14;61.28;97294.91;8316773;28;20230;-75
2022/06/09 00:19:50;;;;;;;4.17;2.10;;;;;;;19.10;61.57;97292.72;8316701;28;20298;-75
2022/06/09 00:23:52;;;;;;;5.53;2.20;;;;;;;19.04;61.89;97295.84;8316682;28;20261;-75
2022/06/09 00:27:55;;;;;;;9.63;2.20;;;;;;;19.07;61.53;97293.78;8316368;28;20245;-74
2022/06/09 00:31:58;;;;;;;6.43;2.43;;;;;;;19.01;61.73;97290.91;8316231;28;20244;-75
2022/06/09 00:36:02;;;;;;;4.97;2.10;;;;;;;18.97;61.90;97292.16;8316064;28;20236;-75
2022/06/09 00:40:07;;;;;;;4.57;2.17;;;;;;;18.97;61.72;97297.41;8315918;28;20416;-75
2022/06/09 00:44:14;;;;;;;4.47;2.23;;;;;;;18.84;62.29;97292.41;8316001;28;20233;-75
2022/06/09 00:48:25;;;;;;;5.17;2.13;;;;;;;18.90;61.75;97283.97;8315724;28;20235;-75
2022/06/09 00:52:33;;;;;;;3.13;2.10;;;;;;;18.95;61.82;97294.91;8323480;28;20276;-74
2022/06/09 00:56:38;;;;;;;4.20;2.50;;;;;;;18.80;62.33;97306.72;8315518;28;20234;-75
2022/06/09 01:00:46;;;;;;;5.10;2.30;;;;;;;18.84;62.02;97310.78;8315499;28;20234;-75
2022/06/09 01:04:51;;;;;;;4.33;2.67;;;;;;;18.73;62.23;97311.69;8327179;28;20236;-75
2022/06/09 01:09:01;;;;;;;4.23;2.20;;;;;;;18.81;61.95;97317.13;8347518;28;20233;-75
2022/06/09 01:13:03;;;;;;;5.30;2.60;;;;;;;18.84;61.98;97319.47;8347750;28;20251;-75
2022/06/09 01:17:11;;;;;;;3.73;2.27;;;;;;;18.81;61.76;97314.50;8347575;28;20236;-75
2022/06/09 01:21:25;;;;;;;4.10;2.53;;;;;;;18.77;61.78;97315.69;8347682;28;20243;-75
2022/06/09 01:25:52;;;;;;;5.13;2.43;;;;;;;18.82;61.60;97321.38;8347179;28;20247;-75
2022/06/09 01:30:06;;;;;;;5.90;2.60;;;;;;;18.66;62.14;97321.88;8344086;28;20238;-75
2022/06/09 01:34:16;;;;;;;3.50;2.50;;;;;;;18.81;61.54;97322.38;8347368;28;20224;-75
2022/06/09 01:38:19;;;;;;;3.77;2.60;;;;;;;18.70;61.86;97328.53;8347011;28;20236;-75
2022/06/09 01:42:24;;;;;;;7.07;2.63;;;;;;;18.66;62.17;97329.75;8346353;28;20240;-74
2022/06/09 01:46:30;;;;;;;3.33;2.40;;;;;;;18.72;61.95;97331.00;8347019;28;20231;-75
2022/06/09 01:50:39;;;;;;;4.03;2.30;;;;;;;18.67;61.70;97323.53;8346953;28;20239;-75
2022/06/09 01:54:42;;;;;;;3.43;2.37;;;;;;;18.68;62.16;97319.13;8347097;28;20244;-75
2022/06/09 01:58:49;;;;;;;2.97;2.33;;;;;;;18.71;61.95;97338.03;8346991;28;20229;-75
2022/06/09 02:02:54;;;;;;;5.17;2.57;;;;;;;18.72;61.45;97342.31;8346955;28;20224;-75
2022/06/09 02:07:01;;;;;;;4.53;2.50;;;;;;;18.70;61.77;97335.56;8346774;28;20415;-75
2022/06/09 02:11:07;;;;;;;4.47;2.50;;;;;;;18.73;61.68;97333.50;8346828;28;20227;-75
2022/06/09 02:15:12;;;;;;;5.20;2.67;;;;;;;18.68;61.72;97332.25;8346779;28;20234;-76
2022/06/09 02:19:15;;;;;;;4.87;2.80;;;;;;;18.65;62.15;97335.94;8349489;28;20236;-76
2022/06/09 02:23:19;;;;;;;4.60;2.80;;;;;;;18.63;61.98;97345.75;8352944;28;20229;-76
2022/06/09 02:27:21;;;;;;;3.93;2.63;;;;;;;18.66;61.80;97342.88;8352388;28;20237;-74
2022/06/09 02:31:25;;;;;;;5.47;2.70;;;;;;;18.55;62.51;97341.16;8352780;28;20232;-75
2022/06/09 02:35:28;;;;;;;4.77;2.40;;;;;;;18.60;62.30;97342.56;8352735;28;20236;-74
2022/06/09 02:39:32;;;;;;;3.47;2.37;;;;;;;18.57;62.24;97343.66;8352481;28;20232;-75
2022/06/09 02:43:35;;;;;;;5.80;2.33;;;;;;;18.59;62.17;97349.59;8352341;28;20239;-75
2022/06/09 02:47:38;;;;;;;5.20;2.40;;;;;;;18.54;62.52;97357.03;8352215;28;20306;-75
2022/06/09 02:51:42;;;;;;;4.53;2.50;;;;;;;18.51;62.51;97359.94;8352183;28;20235;-74
2022/06/09 02:55:46;;;;;;;5.10;2.20;;;;;;;18.60;61.81;97355.66;8351999;28;20247;-75
2022/06/09 02:59:49;;;;;;;4.47;2.47;;;;;;;18.54;62.22;97360.50;8351835;28;20235;-75
2022/06/09 03:03:52;;;;;;;4.90;2.10;;;;;;;18.58;62.38;97360.22;8351874;28;20264;-75
2022/06/09 03:07:55;;;;;;;4.37;2.53;;;;;;;18.57;61.89;97369.88;8351520;28;20245;-75
2022/06/09 03:11:59;;;;;;;6.70;2.57;;;;;;;18.52;62.38;97366.81;8351526;28;20228;-75
2022/06/09 03:16:02;;;;;;;3.87;2.40;;;;;;;18.44;62.73;97369.28;8351437;28;20228;-75
2022/06/09 03:20:06;;;;;;;4.10;2.40;;;;;;;18.42;62.38;97364.16;8351185;28;20236;-75
2022/06/09 03:24:09;;;;;;;4.20;2.10;;;;;;;18.48;62.56;97362.81;8351191;28;20231;-75
2022/06/09 03:28:13;;;;;;;2.67;2.10;;;;;;;18.43;62.49;97365.84;8350912;28;20570;-75
2022/06/09 03:32:16;;;;;;;3.47;2.50;;;;;;;18.46;62.45;97362.94;8350670;28;20231;-75
2022/06/09 03:36:19;;;;;;;5.30;2.13;;;;;;;18.51;62.17;97370.41;8350598;28;20424;-75
2022/06/09 03:40:23;;;;;;;3.47;2.20;;;;;;;18.54;62.02;97378.84;8350394;28;20224;-73
2022/06/09 03:44:27;;;;;;;3.77;2.03;;;;;;;18.57;61.95;97380.38;8350298;28;20236;-75
2022/06/09 03:48:30;;;;;;;3.60;2.00;;;;;;;18.51;62.62;97381.72;8350293;28;20242;-75
2022/06/09 03:52:33;;;;;;;3.47;2.10;;;;;;;18.51;62.41;97379.09;8350412;28;20232;-75
2022/06/09 03:56:36;;;;;;;3.73;2.27;;;;;;;18.59;61.83;97378.44;8350235;28;20305;-75
2022/06/09 04:00:40;;;;;;;4.20;2.43;;;;;;;18.54;61.96;97386.72;8350196;28;20238;-75
2022/06/09 04:04:43;;;;;;;4.60;2.40;;;;;;;18.58;62.07;97389.88;8349905;28;20225;-75
2022/06/09 04:08:48;;;;;;;3.87;2.70;;;;;;;18.39;63.08;97388.03;8349780;28;20232;-75
2022/06/09 04:12:51;;;;;;;4.43;2.47;;;;;;;18.54;62.35;97394.59;8349689;28;20232;-75
2022/06/09 04:16:56;;;;;;;4.83;2.70;;;;;;;18.58;62.68;97395.13;8349469;28;20228;-75
2022/06/09 04:20:59;;;;;;;4.47;2.53;;;;;;;18.53;62.78;97392.91;8349327;28;20228;-75
2022/06/09 04:25:02;;;;;;;4.80;2.90;;;;;;;18.55;62.66;97396.22;8349226;28;20235;-75
2022/06/09 04:29:06;;;;;;;7.20;2.77;;;;;;;18.57;62.62;97403.97;8349012;28;20239;-75
2022/06/09 04:33:11;;;;;;;4.17;2.80;;;;;;;18.62;62.57;97408.81;8349043;28;20232;-75
2022/06/09 04:37:14;;;;;;;4.70;2.80;;;;;;;18.60;62.84;97413.34;8348962;28;20233;-75
2022/06/09 04:41:17;;;;;;;5.03;3.00;;;;;;;18.62;62.68;97409.66;8348022;28;20262;-76
2022/06/09 04:45:20;;;;;;;4.87;3.03;;;;;;;18.66;62.15;97412.84;8348609;28;20236;-76
2022/06/09 04:49:24;;;;;;;3.33;2.80;;;;;;;18.70;62.57;97409.00;8347869;28;20238;-77
2022/06/09 04:53:27;;;;;;;5.60;3.00;;;;;;;18.69;62.62;97416.00;8348303;28;20232;-75
2022/06/09 04:57:30;;;;;;;4.17;3.10;;;;;;;18.67;62.10;97423.19;8348322;28;20238;-75
2022/06/09 05:01:33;;;;;;;4.67;2.97;;;;;;;18.69;62.10;97423.06;8348199;28;20232;-74
2022/06/09 05:05:37;;;;;;;6.30;3.20;;;;;;;18.70;62.27;97424.72;8348008;28;20228;-75
2022/06/09 05:09:40;;;;;;;5.60;3.00;;;;;;;18.78;62.46;97429.31;8347818;28;20244;-75
2022/06/09 05:13:44;;;;;;;4.60;3.40;;;;;;;18.77;62.49;97441.56;8347900;28;20232;-75
2022/06/09 05:17:47;;;;;;;5.57;3.30;;;;;;;18.86;62.47;97448.69;8347695;28;20224;-75
2022/06/09 05:21:51;;;;;;;4.87;3.43;;;;;;;18.80;62.40;97453.63;8347629;28;20234;-75
2022/06/09 05:25:55;;;;;;;5.63;3.80;;;;;;;18.79;62.33;97452.78;8347578;28;20429;-75
2022/06/09 05:29:59;;;;;;;4.60;3.93;;;;;;;18.64;63.30;97454.94;8347489;28;20239;-75
2022/06/09 05:34:03;;;;;;;5.97;3.67;;;;;;;18.79;62.64;97463.28;8347397;28;20227;-75
2022/06/09 05:46:45;;;;;;;6.27;3.83;;;;;;;18.70;62.10;97474.56;8347123;28;20220;-75
2022/06/09 05:50:50;;;;;;;6.20;4.30;;;;;;;18.68;62.60;97477.31;8347134;28;20297;-75
2022/06/09 05:54:54;;;;;;;6.43;3.93;;;;;;;18.70;62.50;97487.69;8351268;28;20244;-75
2022/06/09 05:58:59;;;;;;;7.67;4.00;;;;;;;18.86;62.58;97489.84;8353881;28;20236;-75
2022/06/09 06:03:01;;;;;;;7.77;3.87;;;;;;;18.90;61.87;97494.69;8353699;28;20229;-75
2022/06/09 06:07:07;;;;;;;6.23;3.47;;;;;;;18.81;61.38;97492.88;8353547;28;20301;-75
2022/06/09 06:11:11;;;;;;;6.77;3.50;;;;;;;18.83;61.14;97492.72;8353395;28;20239;-75
2022/06/09 06:15:14;;;;;;;6.17;2.80;;;;;;;18.94;60.55;97500.50;8353404;28;20236;-75
2022/06/09 06:19:18;;;;;;;8.37;3.30;;;;;;;19.15;60.30;97505.69;8353126;28;20228;-75
2022/06/09 06:23:21;;;;;;;6.30;2.70;;;;;;;19.09;59.39;97519.34;8352995;28;20243;-75
2022/06/09 06:27:26;;;;;;;6.13;2.73;;;;;;;19.34;58.80;97513.66;8352656;28;20251;-74
2022/06/09 06:31:47;;;;;;;6.77;2.87;;;;;;;19.60;59.07;97517.56;8352795;28;20291;-75
2022/06/09 06:35:50;;;;;;;6.57;2.37;;;;;;;20.03;57.79;97524.25;8352572;28;20230;-75
2022/06/09 06:39:52;;;;;;;6.00;2.70;;;;;;;20.03;57.48;97527.72;8352578;28;20234;-75
2022/06/09 06:43:57;;;;;;;5.93;2.57;;;;;;;19.97;56.09;97532.69;8352311;28;20247;-75
2022/06/09 06:48:00;;;;;;;7.50;2.37;;;;;;;19.75;57.24;97524.09;8352220;28;20224;-75
2022/06/09 06:52:03;;;;;;;7.33;2.10;;;;;;;19.82;57.02;97533.13;8352256;28;20234;-75
2022/06/09 06:56:08;;;;;;;5.30;2.00;;;;;;;19.91;57.46;97534.94;8352088;28;20230;-75
2022/06/09 07:00:15;;;;;;;5.27;2.20;;;;;;;19.95;56.68;97542.50;8351879;28;20230;-75
2022/06/09 07:04:17;;;;;;;4.70;1.90;;;;;;;20.19;54.80;97542.94;8351079;28;20550;-75
2022/06/09 07:08:23;;;;;;;6.70;2.00;;;;;;;20.68;54.37;97542.94;8351338;28;20230;-75
2022/06/09 07:12:26;;;;;;;6.10;2.17;;;;;;;20.92;53.61;97555.59;8351290;28;20232;-75
2022/06/09 07:16:30;;;;;;;6.10;1.60;;;;;;;20.86;52.94;97549.09;8351508;28;20235;-75
2022/06/09 07:20:49;;;;;;;9.57;2.27;;;;;;;20.91;52.66;97551.31;8351432;28;20228;-76
2022/06/09 07:24:56;;;;;;;6.87;2.67;;;;;;;20.59;53.09;97555.09;8350938;28;20286;-76
2022/06/09 07:28:59;;;;;;;5.37;1.80;;;;;;;20.32;52.79;97553.19;8350942;28;20555;-75
2022/06/09 07:33:04;;;;;;;7.67;1.93;;;;;;;21.28;53.67;97556.59;8351007;28;20246;-77
2022/06/09 07:37:09;;;;;;;8.40;2.03;;;;;;;21.81;50.93;97549.78;8341323;28;20282;-76
2022/06/09 07:41:12;;;;;;;12.33;2.27;;;;;;;21.82;50.38;97545.38;8350567;28;20251;-76
2022/06/09 07:45:31;;;;;;;10.13;2.17;;;;;;;21.72;48.29;97552.47;8350307;28;20247;-77
2022/06/09 07:49:35;;;;;;;6.73;1.60;;;;;;;22.18;49.47;97550.63;8350255;28;20239;-79
2022/06/09 07:53:38;;;;;;;8.43;1.77;;;;;;;22.83;46.72;97553.81;8350245;28;20255;-81
2022/06/09 07:57:41;;;;;;;11.50;1.80;;;;;;;23.04;46.08;97560.56;8350366;28;20232;-82
2022/06/09 08:01:46;;;;;;;8.93;2.07;;;;;;;23.04;45.36;97560.56;8346046;28;20228;-79
2022/06/09 08:05:51;;;;;;;8.13;1.90;;;;;;;23.51;44.01;97554.81;8342190;28;20551;-81
2022/06/09 08:10:17;;;;;;;8.33;2.10;;;;;;;22.74;46.88;97559.19;8349649;28;20240;-79
2022/06/09 08:14:20;;;;;;;8.93;1.90;;;;;;;22.35;48.34;97568.31;8350376;28;20441;-79
2022/06/09 08:18:23;;;;;;;8.87;2.10;;;;;;;21.99;48.70;97565.63;8348936;28;20235;-77
2022/06/09 08:22:27;;;;;;;5.57;1.73;;;;;;;22.78;44.98;97568.44;8350069;28;20236;-77
2022/06/09 08:26:30;;;;;;;7.33;1.67;;;;;;;23.22;44.48;97571.03;8349703;28;20411;-78
2022/06/09 08:30:34;;;;;;;9.57;1.57;;;;;;;23.55;43.46;97566.75;8349136;28;20240;-78
2022/06/09 08:34:37;;;;;;;8.03;1.60;;;;;;;22.80;43.36;97579.69;8349342;28;20243;-78
2022/06/09 08:38:42;;;;;;;17.00;2.33;;;;;;;22.71;45.41;97589.34;8349214;28;20232;-78
2022/06/09 08:42:55;;;;;;;9.73;1.87;;;;;;;22.83;43.79;97596.03;8348869;28;20239;-78
2022/06/09 08:47:08;;;;;;;11.20;2.10;;;;;;;23.26;41.23;97590.88;8340244;28;20237;-79
2022/06/09 08:51:14;;;;;;;9.63;1.80;;;;;;;23.74;41.31;97601.81;8316185;28;20244;-78
2022/06/09 08:55:34;;;;;;;6.10;1.77;;;;;;;23.81;41.99;97601.03;8316636;28;20237;-79
2022/06/09 08:59:38;;;;;;;7.83;1.70;;;;;;;23.73;42.48;97605.44;8320871;28;20233;-78
2022/06/09 09:03:44;;;;;;;6.37;1.60;;;;;;;23.34;43.27;97606.78;8317875;28;20425;-78
2022/06/09 09:07:50;;;;;;;8.90;2.17;;;;;;;22.95;42.33;97619.56;8348458;28;20244;-77
2022/06/09 09:12:01;;;;;;;6.23;1.90;;;;;;;22.73;42.99;97624.34;8348305;28;20240;-78
2022/06/09 09:16:12;;;;;;;10.03;2.17;;;;;;;22.76;44.89;97631.94;8348077;28;20434;-77
2022/06/09 09:20:17;;;;;;;12.33;1.97;;;;;;;22.32;44.04;97623.97;8345305;28;20523;-78
2022/06/09 09:24:24;;;;;;;7.67;1.70;;;;;;;22.48;43.53;97623.28;8315755;28;20437;-78
2022/06/09 09:28:32;;;;;;;11.60;2.30;;;;;;;22.78;43.72;97627.34;8347295;28;20238;-76
2022/06/09 09:32:41;;;;;;;8.90;1.63;;;;;;;23.13;43.08;97625.66;8348538;28;20455;-78
2022/06/09 09:36:46;;;;;;;9.43;1.83;;;;;;;22.55;43.48;97634.09;8348121;28;20232;-78
2022/06/09 09:40:50;;;;;;;5.37;1.57;;;;;;;21.96;41.96;97634.47;8347810;28;20244;-77
2022/06/09 09:45:14;;;;;;;32.70;10.50;;;;;;;21.91;44.04;97639.34;8347554;28;20250;-77
2022/06/09 09:49:22;;;;;;;8.97;3.10;;;;;;;21.79;44.92;97638.72;8347047;28;20228;-77
2022/06/09 09:53:32;;;;;;;8.33;1.93;;;;;;;21.95;42.88;97627.53;8314226;28;20295;-76
2022/06/09 09:57:35;;;;;;;6.30;1.80;;;;;;;22.04;42.93;97639.00;8314595;28;20233;-81
2022/06/09 10:10:43;;;;;;;3.43;1.20;;;;;;;23.39;39.01;97643.28;8346813;28;20239;-76
2022/06/09 10:15:07;;;;;;;3.33;1.27;;;;;;;22.58;40.37;97646.97;8347079;28;20259;-76
2022/06/09 10:19:30;;;;;;;3.80;1.40;;;;;;;22.22;41.41;97662.78;8346421;28;20573;-76
2022/06/09 10:23:51;;;;;;;5.03;1.57;;;;;;;21.77;43.48;97682.00;8346750;28;20235;-77
2022/06/09 10:28:00;;;;;;;5.03;1.53;;;;;;;21.64;44.27;97677.88;8346713;28;20335;-77
2022/06/09 10:32:06;;;;;;;4.40;1.30;;;;;;;21.94;44.30;97683.88;8346472;28;20232;-77
2022/06/09 10:36:16;;;;;;;7.07;1.30;;;;;;;21.72;44.95;97687.69;8346508;28;20232;-77
2022/06/09 10:40:21;;;;;;;5.63;1.50;;;;;;;21.87;42.71;97695.97;8349388;28;20247;-77
2022/06/09 10:44:29;;;;;;;5.10;1.50;;;;;;;21.91;44.12;97686.78;8351862;28;20234;-76
2022/06/09 10:57:24;;;;;;;11.83;1.60;;;;;;;22.19;42.17;97692.06;8319074;28;20233;-81
2022/06/09 11:01:30;;;;;;;8.70;1.50;;;;;;;22.16;42.52;97693.19;8324135;28;20233;-83
2022/06/09 11:05:41;;;;;;;12.40;1.47;;;;;;;22.41;41.14;97704.03;8318834;28;20233;-81
2022/06/09 11:09:56;;;;;;;5.40;1.70;;;;;;;22.32;42.61;97700.47;8318930;28;20232;-83
2022/06/09 11:14:13;;;;;;;7.47;1.80;;;;;;;22.31;41.56;97698.81;8318722;28;20239;-83
2022/06/09 11:18:26;;;;;;;7.80;1.70;;;;;;;22.57;40.65;97692.81;8318714;28;20298;-83
2022/06/09 11:22:35;;;;;;;10.80;1.53;;;;;;;22.61;41.22;97692.34;8318283;28;20233;-82
2022/06/09 11:26:47;;;;;;;8.97;1.53;;;;;;;22.64;40.61;97693.88;8318165;28;20237;-82
2022/06/09 11:31:05;;;;;;;6.83;1.80;;;;;;;22.87;42.08;97694.25;8317989;28;20236;-83
2022/06/09 11:35:17;;;;;;;2.70;1.10;;;;;;;22.82;41.32;97693.84;8318085;28;20235;-81
2022/06/09 11:39:39;;;;;;;5.43;1.70;;;;;;;22.71;41.13;97699.38;8318074;28;20228;-82
2022/06/09 11:43:48;;;;;;;12.00;1.87;;;;;;;22.76;42.26;97695.28;8317677;28;20239;-81
2022/06/09 11:47:52;;;;;;;5.00;1.60;;;;;;;22.70;42.13;97690.63;8317917;28;20296;-81
2022/06/09 11:51:55;;;;;;;8.47;1.70;;;;;;;22.82;42.65;97691.22;8346455;28;20240;-80
2022/06/09 11:56:33;;;;;;;5.30;1.30;;;;;;;22.89;41.53;97680.91;8340367;28;20228;-79
2022/06/09 12:00:40;;;;;;;5.27;1.40;;;;;;;23.12;39.55;97683.91;8343589;28;20542;-79
2022/06/09 12:05:22;;;;;;;5.17;1.40;;;;;;;23.30;38.63;97686.50;8350038;28;20268;-79
2022/06/09 12:09:33;;;;;;;2.97;1.10;;;;;;;23.29;39.04;97684.84;8349532;28;20236;-79
2022/06/09 12:13:47;;;;;;;4.60;1.23;;;;;;;23.35;37.69;97694.78;8345805;28;20239;-78
2022/06/09 12:18:05;;;;;;;4.07;1.37;;;;;;;23.91;36.46;97701.41;8349696;28;20538;-80
2022/06/09 12:22:48;;;;;;;3.60;1.10;;;;;;;23.90;36.67;97704.19;8349516;28;20239;-79
2022/06/09 12:26:55;;;;;;;6.93;1.30;;;;;;;23.82;36.78;97702.34;8280821;28;20691;-80
2022/06/09 12:31:13;;;;;;;2.90;1.10;;;;;;;23.89;36.28;97705.19;8313041;28;20299;-81
2022/06/09 12:35:31;;;;;;;4.13;1.47;;;;;;;23.61;36.42;97710.63;8348198;28;20224;-80
2022/06/09 12:39:38;;;;;;;4.97;1.40;;;;;;;23.78;36.53;97717.69;8348807;28;20238;-80
2022/06/09 12:43:46;;;;;;;5.30;1.17;;;;;;;24.43;36.91;97720.72;8348463;28;20258;-80
2022/06/09 12:47:53;;;;;;;5.70;1.30;;;;;;;24.53;35.99;97724.09;8348682;28;20385;-79
2022/06/09 12:51:57;;;;;;;4.27;1.00;;;;;;;24.00;35.49;97726.06;8348506;28;20232;-80
2022/06/09 12:56:24;;;;;;;8.07;1.40;;;;;;;23.91;37.36;97732.28;8332619;28;20232;-79
2022/06/09 13:00:34;;;;;;;5.57;1.50;;;;;;;23.46;38.10;97733.34;8322462;28;20230;-79
2022/06/09 13:04:44;;;;;;;8.33;1.57;;;;;;;23.77;39.65;97745.06;8325352;28;20233;-88
2022/06/09 13:08:51;;;;;;;6.70;1.30;;;;;;;23.32;38.76;97745.28;8348366;28;20235;-83
2022/06/09 13:13:04;;;;;;;5.70;1.40;;;;;;;23.39;36.36;97749.78;8348158;28;20433;-83
2022/06/09 13:17:10;;;;;;;4.97;1.50;;;;;;;23.88;37.01;97756.41;8348264;28;20236;-81
2022/06/09 13:21:17;;;;;;;5.57;2.10;;;;;;;23.64;36.88;97759.72;8348152;28;20424;-81
2022/06/09 13:25:23;;;;;;;6.40;1.20;;;;;;;23.88;38.28;97762.53;8347716;28;20230;-83
2022/06/09 13:29:29;;;;;;;5.57;1.50;;;;;;;23.90;39.04;97765.84;8347332;28;20243;-82
2022/06/09 13:33:35;;;;;;;6.63;1.10;;;;;;;23.49;39.86;97770.00;8347684;28;20282;-80
2022/06/09 13:37:46;;;;;;;6.17;1.60;;;;;;;23.27;40.61;97782.75;8312053;28;20240;-82
2022/06/09 13:42:04;;;;;;;6.73;1.73;;;;;;;23.26;40.10;97788.16;8314554;28;20239;-79
2022/06/09 13:46:14;;;;;;;7.07;2.00;;;;;;;22.98;40.83;97799.63;8314695;28;20235;-81
2022/06/09 13:50:21;;;;;;;7.03;1.70;;;;;;;23.00;40.87;97805.59;8314733;28;20407;-81
2022/06/09 13:54:29;;;;;;;8.40;1.73;;;;;;;22.61;41.83;97816.38;8314197;28;20239;-81
2022/06/09 13:58:34;;;;;;;5.07;1.50;;;;;;;22.52;42.32;97819.06;8314616;28;20436;-80
2022/06/09 14:02:47;;;;;;;4.63;1.33;;;;;;;22.94;41.95;97813.25;8314970;28;20236;-81
2022/06/09 14:06:50;;;;;;;7.77;1.70;;;;;;;23.12;42.75;97819.41;8343007;28;20251;-81
2022/06/09 14:10:53;;;;;;;8.10;1.90;;;;;;;23.12;41.95;97831.81;8347200;28;20428;-79
2022/06/09 14:14:58;;;;;;;4.57;1.73;;;;;;;22.79;42.65;97840.19;8349402;28;20228;-81
2022/06/09 14:19:07;;;;;;;5.47;1.83;;;;;;;22.87;43.01;97830.69;8353224;28;20227;-80
2022/06/09 14:23:12;;;;;;;7.77;1.50;;;;;;;22.93;43.15;97841.47;8353263;28;20240;-79
2022/06/09 14:27:15;;;;;;;5.30;1.53;;;;;;;22.82;43.70;97847.78;8353098;28;20259;-79
2022/06/09 14:31:22;;;;;;;4.93;1.40;;;;;;;22.80;43.27;97839.19;8352776;28;20236;-79
2022/06/09 14:35:25;;;;;;;7.03;1.50;;;;;;;22.73;43.27;97848.72;8352421;28;20524;-78
2022/06/09 14:39:28;;;;;;;7.77;1.60;;;;;;;22.71;44.34;97850.63;8352678;28;20227;-78
2022/06/09 14:43:31;;;;;;;5.47;1.80;;;;;;;22.57;43.09;97853.78;8352594;28;20240;-78
2022/06/09 14:47:35;;;;;;;4.27;1.47;;;;;;;22.59;43.28;97865.03;8352403;28;20354;-78
2022/06/09 14:51:38;;;;;;;6.57;1.30;;;;;;;22.81;42.51;97861.16;8352326;28;20539;-78
2022/06/09 14:55:41;;;;;;;8.60;1.40;;;;;;;22.95;42.00;97862.47;8340636;28;20232;-78
2022/06/09 14:59:44;;;;;;;2.97;1.10;;;;;;;23.24;41.61;97857.00;8319565;28;20225;-78
2022/06/09 15:03:48;;;;;;;5.53;1.37;;;;;;;23.19;41.40;97851.34;8322538;28;20247;-79
2022/06/09 15:07:52;;;;;;;6.37;1.80;;;;;;;23.19;42.51;97864.56;8351915;28;20247;-78
2022/06/09 15:11:55;;;;;;;4.80;1.50;;;;;;;23.19;42.15;97861.94;8351751;28;20239;-78
2022/06/09 15:16:01;;;;;;;4.43;1.10;;;;;;;22.91;40.84;97869.03;8351431;28;20424;-78
2022/06/09 15:20:22;;;;;;;3.07;1.13;;;;;;;23.12;41.86;97871.41;8349107;28;20293;-79
2022/06/09 15:24:26;;;;;;;3.53;1.30;;;;;;;22.87;41.81;97870.31;8342611;28;20231;-79
2022/06/09 15:28:28;;;;;;;14.23;1.80;;;;;;;23.40;42.74;97866.91;8351206;28;20238;-79
2022/06/09 15:32:31;;;;;;;12.00;1.53;;;;;;;23.10;41.86;97876.03;8351145;28;20437;-78
2022/06/09 15:36:36;;;;;;;5.90;1.20;;;;;;;23.27;41.85;97869.91;8351024;28;20239;-77
2022/06/09 15:40:41;;;;;;;2.50;1.03;;;;;;;23.28;40.70;97870.75;8350918;28;20239;-78
2022/06/09 15:44:44;;;;;;;6.13;1.20;;;;;;;23.20;39.38;97872.31;8350831;28;20261;-78
2022/06/09 15:48:47;;;;;;;4.00;1.20;;;;;;;23.10;39.53;97876.84;8350571;28;20390;-78
2022/06/09 15:52:51;;;;;;;3.97;1.23;;;;;;;;;;8350110;28;20236;-80
2022/06/09 15:56:54;;;;;;;1.80;0.93;;;;;;;22.94;39.77;97881.91;8350358;28;20229;-78
2022/06/09 16:00:57;;;;;;;4.03;1.10;;;;;;;22.93;39.26;97878.44;8350368;28;20231;-78
2022/06/09 16:05:00;;;;;;;6.37;1.50;;;;;;;23.12;39.13;97879.34;8342136;28;20574;-78
2022/06/09 16:09:05;;;;;;;5.40;1.40;;;;;;;23.04;39.24;97877.44;8349955;28;20235;-78
2022/06/09 16:13:10;;;;;;;3.63;1.37;;;;;;;23.09;39.44;97887.56;8349653;28;20241;-78
2022/06/09 16:17:13;;;;;;;5.77;1.20;;;;;;;22.66;40.20;97887.22;8349538;28;20442;-78
2022/06/09 16:21:15;;;;;;;5.17;1.00;;;;;;;22.28;41.36;97896.94;8349418;28;20235;-78
2022/06/09 16:25:21;;;;;;;3.23;1.27;;;;;;;22.25;41.00;97905.13;8349265;28;20475;-78
2022/06/09 16:29:24;;;;;;;4.20;1.23;;;;;;;22.29;40.59;97909.13;8348533;28;20239;-78
2022/06/09 16:33:27;;;;;;;3.43;1.13;;;;;;;22.33;40.13;97926.38;8348896;28;20240;-78
2022/06/09 16:37:30;;;;;;;4.53;1.20;;;;;;;21.99;40.73;97920.69;8348186;28;20239;-78
2022/06/09 16:41:35;;;;;;;5.13;1.17;;;;;;;22.18;40.51;97920.69;8348713;28;20243;-78
2022/06/09 16:45:37;;;;;;;2.87;0.90;;;;;;;22.33;40.57;97925.53;8348560;28;20228;-78
2022/06/09 16:49:40;;;;;;;6.90;1.30;;;;;;;22.22;39.48;97935.25;8348633;28;20430;-78
2022/06/09 16:53:44;;;;;;;3.70;1.20;;;;;;;22.11;37.85;97934.56;8348712;28;20247;-78
2022/06/09 16:57:50;;;;;;;3.17;0.97;;;;;;;22.00;37.58;97946.94;8348910;28;20227;-77
2022/06/09 17:01:52;;;;;;;2.40;0.97;;;;;;;21.94;38.66;97949.31;8348609;28;20228;-78
2022/06/09 17:05:57;;;;;;;3.07;0.93;;;;;;;22.18;38.40;97954.97;8338551;28;20465;-78
2022/06/09 17:10:01;;;;;;;2.20;0.97;;;;;;;22.06;39.28;97964.00;8348189;28;20246;-79
2022/06/09 17:14:06;;;;;;;3.23;1.10;;;;;;;22.05;38.51;97962.34;8348003;28;20262;-76
2022/06/09 17:18:10;;;;;;;1.80;0.97;;;;;;;22.11;39.09;97968.84;8347807;28;20232;-76
2022/06/09 17:22:12;;;;;;;1.87;1.07;;;;;;;22.15;38.56;97971.06;8347822;28;20234;-76
2022/06/09 17:26:17;;;;;;;3.60;1.37;;;;;;;22.13;39.09;97988.00;8347593;28;20429;-78
2022/06/09 17:30:22;;;;;;;6.50;1.57;;;;;;;22.16;39.84;97985.06;8329079;28;20229;-78
2022/06/09 17:34:25;;;;;;;5.90;1.30;;;;;;;21.81;40.76;97997.84;8314119;28;20254;-78
2022/06/09 17:38:28;;;;;;;3.63;1.33;;;;;;;21.80;40.98;97998.00;8314816;28;20239;-79
2022/06/09 17:42:31;;;;;;;4.70;1.40;;;;;;;22.13;41.14;98009.09;8314617;28;20649;-79
2022/06/09 17:46:39;;;;;;;6.43;2.00;;;;;;;22.01;41.18;98003.97;8314543;28;20536;-73
2022/06/09 17:50:47;;;;;;;4.63;1.83;;;;;;;21.97;42.06;98012.28;8323799;28;20224;-72
2022/06/09 17:54:49;;;;;;;6.47;1.70;;;;;;;21.72;42.64;98021.56;8325241;28;20531;-71
2022/06/09 17:58:52;;;;;;;4.63;1.90;;;;;;;21.47;43.35;98019.31;8325396;28;20435;-72
2022/06/09 18:02:57;;;;;;;5.97;2.20;;;;;;;21.70;43.30;98029.59;8324955;28;20235;-73
2022/06/09 18:07:00;;;;;;;3.20;1.87;;;;;;;21.64;43.32;98032.78;8324934;28;20228;-73
2022/06/09 18:11:06;;;;;;;3.80;1.70;;;;;;;21.63;43.90;98033.78;8322659;28;20569;-72
2022/06/09 18:15:10;;;;;;;4.50;2.20;;;;;;;21.32;44.28;98049.59;8324769;28;20232;-73
2022/06/09 18:19:15;;;;;;;5.37;1.97;;;;;;;21.33;44.92;98051.28;8324794;28;20244;-73
2022/06/09 18:23:18;;;;;;;7.30;2.00;;;;;;;21.07;45.39;98053.53;8324706;28;20430;-80
2022/06/09 18:27:21;;;;;;;6.50;1.93;;;;;;;21.09;45.32;98059.50;8324440;28;20236;-76
2022/06/09 18:31:24;;;;;;;8.37;2.17;;;;;;;20.96;45.52;98065.00;8357308;28;20224;-75
2022/06/09 18:35:29;;;;;;;4.77;2.03;;;;;;;21.05;45.54;98076.53;8357261;28;20249;-76
2022/06/09 18:39:32;;;;;;;7.80;2.70;;;;;;;20.87;45.69;98078.94;8356057;28;20234;-73
2022/06/09 18:43:34;;;;;;;6.80;1.90;;;;;;;20.96;45.45;98088.69;8332087;28;20551;-74
2022/06/09 18:47:38;;;;;;;4.10;2.13;;;;;;;20.95;45.56;98094.09;8324365;28;20244;-74
2022/06/09 18:51:42;;;;;;;6.67;2.40;;;;;;;20.87;45.71;98106.09;8324378;28;20233;-74
2022/06/09 18:55:45;;;;;;;12.97;3.40;;;;;;;20.87;46.56;98106.09;8324459;28;20230;-74
2022/06/09 18:59:48;;;;;;;43.57;3.47;;;;;;;20.80;47.02;98109.38;8322196;28;20235;-74
2022/06/09 19:03:51;;;;;;;4.70;1.87;;;;;;;20.70;47.12;98110.13;8319187;28;20227;-74
2022/06/09 19:07:56;;;;;;;8.70;2.10;;;;;;;20.73;47.24;98118.72;8319041;28;20235;-74
2022/06/09 19:11:59;;;;;;;13.83;1.97;;;;;;;20.71;48.05;98121.47;8318809;28;20229;-73
2022/06/09 19:16:03;;;;;;;24.90;2.93;;;;;;;20.61;48.00;98134.56;8333309;28;20238;-74
2022/06/09 19:20:07;;;;;;;3.27;1.67;;;;;;;20.57;48.62;98133.13;8337178;28;20428;-74
2022/06/09 19:24:12;;;;;;;5.53;1.80;;;;;;;20.56;49.01;98141.16;8335506;28;20231;-74
2022/06/09 19:28:17;;;;;;;4.27;1.60;;;;;;;20.53;48.49;98147.50;8351173;28;20235;-73
2022/06/09 19:32:20;;;;;;;5.77;2.00;;;;;;;20.54;47.97;98150.97;8333566;28;20339;-74
2022/06/09 19:36:24;;;;;;;7.80;1.97;;;;;;;20.50;48.07;98160.91;8317926;28;20404;-78
2022/06/09 19:40:29;;;;;;;5.03;1.93;;;;;;;20.47;47.85;98161.16;8318099;28;20231;-76
2022/06/09 19:44:32;;;;;;;4.27;2.27;;;;;;;20.43;47.62;98162.38;8317800;28;20243;-76
2022/06/09 19:48:35;;;;;;;5.43;2.00;;;;;;;20.24;47.82;98170.94;8323611;28;20421;-77